Time;durP1;ratioP1;P1;durP2;ratioP2;P2;SDS_P1;SDS_P2;PMS_P1;PMS_P2;Temp;Humidity;BMP_temperature;BMP_pressure;BME280_temperature;BME280_humidity;BME280_pressure;Samples;Min_cycle;Max_cycle;Signal;HPM_P1;HPM_P2
2023/03/07 00:01:30;;;;;;;17.40;15.70;;;;;;;;;;4981930;28;20757;-88
2023/03/07 00:03:59;;;;;;;19.10;16.30;;;;;;;;;;4961091;28;20217;-89
2023/03/07 00:06:34;;;;;;;19.43;17.37;;;;;;;;;;4968823;28;20250;-86
2023/03/07 00:09:00;;;;;;;21.10;17.73;;;;;;;;;;4961631;28;20582;-89
2023/03/07 00:11:26;;;;;;;20.00;18.00;;;;;;;;;;4966446;28;20284;-89
2023/03/07 00:13:55;;;;;;;20.17;17.97;;;;;;;;;;4953620;28;20635;-89
2023/03/07 00:16:21;;;;;;;21.80;19.50;;;;;;;;;;5003498;28;20232;-88
2023/03/07 00:18:47;;;;;;;21.77;19.27;;;;;;;;;;4976273;28;20617;-88
2023/03/07 00:21:14;;;;;;;22.33;20.07;;;;;;;;;;5016334;28;20272;-89
2023/03/07 00:23:41;;;;;;;23.47;20.83;;;;;;;;;;4949370;28;20228;-89
2023/03/07 00:26:11;;;;;;;23.33;20.83;;;;;;;;;;4971106;28;20592;-88
2023/03/07 00:28:38;;;;;;;21.77;19.47;;;;;;;;;;4989054;28;20222;-89
2023/03/07 00:31:08;;;;;;;24.17;21.57;;;;;;;;;;4986741;28;20232;-88
2023/03/07 00:33:33;;;;;;;23.93;21.43;;;;;;;;;;4954688;28;20300;-87
2023/03/07 00:36:00;;;;;;;23.93;21.43;;;;;;;;;;4965011;28;20261;-86
2023/03/07 00:38:27;;;;;;;25.90;21.83;;;;;;;;;;4966455;28;20363;-89
2023/03/07 00:41:04;;;;;;;24.30;21.70;;;;;;;;;;4968689;28;20197;-88
2023/03/07 00:43:32;;;;;;;24.83;22.33;;;;;;;;;;4971460;28;20216;-89
2023/03/07 00:45:58;;;;;;;25.03;22.27;;;;;;;;;;4953640;28;20229;-89
2023/03/07 00:48:26;;;;;;;26.53;23.73;;;;;;;;;;4975696;28;20217;-87
2023/03/07 00:50:53;;;;;;;23.73;21.23;;;;;;;;;;4983038;28;20221;-91
2023/03/07 00:53:19;;;;;;;26.33;23.33;;;;;;;;;;4983134;28;20241;-89
2023/03/07 00:55:57;;;;;;;27.20;24.27;;;;;;;;;;4980613;28;20253;-88
2023/03/07 00:58:26;;;;;;;29.77;23.93;;;;;;;;;;4988070;28;20953;-87
2023/03/07 01:00:54;;;;;;;25.80;23.00;;;;;;;;;;4964781;28;20264;-89
2023/03/07 01:03:21;;;;;;;27.17;24.00;;;;;;;;;;4973866;28;20288;-90
2023/03/07 01:05:46;;;;;;;28.63;23.20;;;;;;;;;;4970163;28;20242;-86
2023/03/07 01:08:12;;;;;;;26.83;23.60;;;;;;;;;;4957496;28;20329;-90
2023/03/07 01:10:38;;;;;;;29.33;23.83;;;;;;;;;;4975603;28;20280;-88
2023/03/07 01:13:04;;;;;;;27.03;24.23;;;;;;;;;;4974331;28;20236;-90
2023/03/07 01:15:30;;;;;;;26.67;23.93;;;;;;;;;;4960800;28;20252;-90
2023/03/07 01:17:55;;;;;;;29.03;24.63;;;;;;;;;;4956272;28;20679;-88
2023/03/07 01:20:21;;;;;;;28.80;25.17;;;;;;;;;;4973183;28;20274;-87
2023/03/07 01:22:50;;;;;;;29.83;24.50;;;;;;;;;;4943981;28;20215;-90
2023/03/07 01:25:16;;;;;;;28.00;24.87;;;;;;;;;;4977977;28;20256;-88
2023/03/07 01:27:44;;;;;;;27.87;24.57;;;;;;;;;;4975995;28;20218;-87
2023/03/07 01:30:12;;;;;;;26.93;23.37;;;;;;;;;;4962175;28;20244;-86
2023/03/07 01:32:38;;;;;;;25.27;22.57;;;;;;;;;;4958336;28;20214;-88
2023/03/07 01:35:04;;;;;;;32.10;24.93;;;;;;;;;;4993734;28;20232;-88
2023/03/07 01:37:31;;;;;;;25.43;22.77;;;;;;;;;;4991521;28;20213;-90
2023/03/07 01:39:57;;;;;;;24.93;22.27;;;;;;;;;;4975047;28;20221;-87
2023/03/07 01:42:23;;;;;;;27.67;23.40;;;;;;;;;;4950242;28;20246;-87
2023/03/07 01:45:04;;;;;;;24.20;21.50;;;;;;;;;;4935348;28;20222;-88
2023/03/07 01:47:42;;;;;;;23.80;21.33;;;;;;;;;;4962692;28;20228;-88
2023/03/07 01:50:11;;;;;;;25.77;20.87;;;;;;;;;;4962094;28;20313;-89
2023/03/07 01:52:40;;;;;;;22.37;19.50;;;;;;;;;;4984274;28;20251;-87
2023/03/07 01:55:10;;;;;;;22.50;19.97;;;;;;;;;;4980092;28;20381;-88
2023/03/07 01:57:39;;;;;;;21.20;18.90;;;;;;;;;;4988153;28;20217;-88
2023/03/07 02:00:08;;;;;;;26.80;19.53;;;;;;;;;;4967986;28;20633;-86
2023/03/07 02:02:39;;;;;;;26.20;19.93;;;;;;;;;;4971830;28;20236;-89
2023/03/07 02:05:10;;;;;;;20.77;18.17;;;;;;;;;;4988333;28;20257;-87
2023/03/07 02:07:42;;;;;;;22.63;18.03;;;;;;;;;;4981962;28;20246;-88
2023/03/07 02:10:13;;;;;;;20.60;17.67;;;;;;;;;;4972999;28;20217;-89
2023/03/07 02:12:39;;;;;;;23.83;18.57;;;;;;;;;;5002879;28;20221;-89
2023/03/07 02:15:09;;;;;;;18.00;15.77;;;;;;;;;;4983458;28;20221;-86
2023/03/07 02:17:34;;;;;;;21.67;18.07;;;;;;;;;;4960556;28;20580;-89
2023/03/07 02:20:19;;;;;;;20.83;17.03;;;;;;;;;;4972585;28;20233;-88
2023/03/07 02:22:51;;;;;;;19.73;16.83;;;;;;;;;;4956269;28;20222;-88
2023/03/07 02:25:24;;;;;;;18.50;16.60;;;;;;;;;;4955897;28;20241;-89
2023/03/07 02:27:52;;;;;;;20.77;16.83;;;;;;;;;;4980618;28;20208;-86
2023/03/07 02:30:19;;;;;;;19.87;17.77;;;;;;;;;;4999327;28;20258;-88
2023/03/07 02:32:47;;;;;;;19.40;17.20;;;;;;;;;;4973585;28;20229;-85
2023/03/07 02:35:19;;;;;;;22.23;18.53;;;;;;;;;;4983983;28;20234;-90
2023/03/07 02:37:51;;;;;;;19.70;17.57;;;;;;;;;;5016745;28;20231;-86
2023/03/07 02:40:18;;;;;;;21.10;17.23;;;;;;;;;;5000845;28;20209;-87
2023/03/07 02:42:45;;;;;;;19.93;17.77;;;;;;;;;;4984309;28;20201;-86
2023/03/07 02:45:14;;;;;;;18.90;16.90;;;;;;;;;;4983746;28;20220;-87
2023/03/07 02:47:42;;;;;;;17.60;15.17;;;;;;;;;;4997680;28;20285;-89
2023/03/07 02:50:08;;;;;;;18.00;15.90;;;;;;;;;;4967968;28;20245;-90
2023/03/07 02:52:37;;;;;;;17.87;14.83;;;;;;;;;;4969523;28;20231;-89
2023/03/07 02:55:03;;;;;;;17.70;15.80;;;;;;;;;;4953618;28;20236;-88
2023/03/07 02:57:32;;;;;;;17.87;16.03;;;;;;;;;;4991620;28;20221;-88
2023/03/07 02:59:59;;;;;;;16.90;15.23;;;;;;;;;;4978722;28;20718;-88
2023/03/07 03:02:25;;;;;;;16.73;14.93;;;;;;;;;;4990974;28;20337;-88
2023/03/07 03:04:51;;;;;;;16.50;14.77;;;;;;;;;;4958417;28;20222;-87
2023/03/07 03:07:19;;;;;;;17.57;14.83;;;;;;;;;;4969588;28;20221;-87
2023/03/07 03:09:47;;;;;;;15.73;14.10;;;;;;;;;;4961520;28;20672;-89
2023/03/07 03:12:13;;;;;;;16.63;14.93;;;;;;;;;;4947657;28;20213;-88
2023/03/07 03:14:38;;;;;;;16.00;14.40;;;;;;;;;;4985584;28;20228;-89
2023/03/07 03:17:04;;;;;;;17.37;15.57;;;;;;;;;;4960201;28;20233;-87
2023/03/07 03:19:32;;;;;;;14.80;13.30;;;;;;;;;;4959533;28;20214;-88
2023/03/07 03:21:58;;;;;;;16.47;14.77;;;;;;;;;;4971742;28;20213;-89
2023/03/07 03:24:27;;;;;;;14.13;12.73;;;;;;;;;;4975192;28;20218;-88
2023/03/07 03:26:56;;;;;;;14.60;13.13;;;;;;;;;;4932190;28;20282;-85
2023/03/07 03:29:24;;;;;;;16.03;14.43;;;;;;;;;;4987347;28;20237;-87
2023/03/07 03:31:50;;;;;;;14.30;12.87;;;;;;;;;;4965425;28;20232;-90
2023/03/07 03:34:18;;;;;;;13.60;12.20;;;;;;;;;;4979052;28;20219;-88
2023/03/07 03:36:44;;;;;;;12.17;10.87;;;;;;;;;;4975691;28;20218;-86
2023/03/07 03:39:09;;;;;;;11.97;10.90;;;;;;;;;;4953352;28;20586;-87
2023/03/07 03:41:40;;;;;;;13.60;12.20;;;;;;;;;;4983810;28;20227;-88
2023/03/07 03:44:08;;;;;;;12.93;11.70;;;;;;;;;;4973202;28;20229;-88
2023/03/07 03:46:35;;;;;;;12.87;11.73;;;;;;;;;;4983368;28;20227;-88
2023/03/07 03:49:03;;;;;;;12.90;11.73;;;;;;;;;;4983973;28;20333;-88
2023/03/07 03:51:29;;;;;;;12.70;11.53;;;;;;;;;;4940437;28;20229;-88
2023/03/07 03:53:57;;;;;;;11.77;10.73;;;;;;;;;;4981599;28;20201;-88
2023/03/07 03:56:23;;;;;;;12.67;11.47;;;;;;;;;;4982719;28;20275;-87
2023/03/07 03:58:54;;;;;;;12.23;11.03;;;;;;;;;;4970234;28;20646;-88
2023/03/07 04:01:20;;;;;;;11.43;10.37;;;;;;;;;;4974931;28;20667;-89
2023/03/07 04:03:48;;;;;;;12.23;11.13;;;;;;;;;;4981709;28;20229;-89
2023/03/07 04:06:19;;;;;;;11.50;10.40;;;;;;;;;;4981682;28;20238;-88
2023/03/07 04:08:45;;;;;;;11.57;10.47;;;;;;;;;;4962691;28;20281;-88
2023/03/07 04:11:14;;;;;;;11.53;10.37;;;;;;;;;;4951868;28;20229;-88
2023/03/07 04:13:40;;;;;;;11.13;10.10;;;;;;;;;;4979997;28;20308;-89
2023/03/07 04:16:06;;;;;;;12.50;11.20;;;;;;;;;;4945857;28;20257;-88
2023/03/07 04:18:32;;;;;;;11.73;10.63;;;;;;;;;;4985542;28;20274;-88
2023/03/07 04:20:58;;;;;;;11.83;10.77;;;;;;;;;;4968648;28;20255;-89
2023/03/07 04:23:26;;;;;;;11.50;10.33;;;;;;;;;;4986230;28;20258;-90
2023/03/07 04:25:54;;;;;;;11.83;10.83;;;;;;;;;;4963681;28;20218;-89
2023/03/07 04:28:23;;;;;;;11.27;10.17;;;;;;;;;;4979224;28;20225;-88
2023/03/07 04:30:51;;;;;;;11.67;10.67;;;;;;;;;;4971394;28;20211;-85
2023/03/07 04:33:17;;;;;;;11.40;10.40;;;;;;;;;;4986627;28;20309;-86
2023/03/07 04:35:44;;;;;;;10.03;9.20;;;;;;;;;;4965110;28;20709;-87
2023/03/07 04:38:13;;;;;;;11.83;10.60;;;;;;;;;;4965886;28;20244;-88
2023/03/07 04:40:38;;;;;;;10.70;9.70;;;;;;;;;;4967981;28;20233;-89
2023/03/07 04:43:05;;;;;;;11.00;9.97;;;;;;;;;;4960853;28;20733;-87
2023/03/07 04:45:35;;;;;;;10.93;9.93;;;;;;;;;;4959634;28;20227;-88
2023/03/07 04:48:02;;;;;;;10.57;9.60;;;;;;;;;;4960277;28;20697;-85
2023/03/07 04:50:31;;;;;;;11.93;10.70;;;;;;;;;;4977192;28;20293;-91
2023/03/07 04:52:59;;;;;;;10.93;9.83;;;;;;;;;;4980916;28;20224;-86
2023/03/07 04:55:25;;;;;;;11.30;10.10;;;;;;;;;;4960516;28;20565;-87
2023/03/07 04:57:51;;;;;;;11.37;9.07;;;;;;;;;;4938436;28;20222;-89
2023/03/07 05:00:18;;;;;;;11.43;10.27;;;;;;;;;;4964906;28;20216;-89
2023/03/07 05:02:45;;;;;;;13.07;9.83;;;;;;;;;;4945648;28;20953;-85
2023/03/07 05:05:11;;;;;;;9.87;8.97;;;;;;;;;;4962061;28;20249;-88
2023/03/07 05:07:37;;;;;;;10.80;9.70;;;;;;;;;;4970679;28;20230;-90
2023/03/07 05:10:04;;;;;;;10.33;9.33;;;;;;;;;;4976892;28;20249;-87
2023/03/07 05:12:30;;;;;;;9.60;8.70;;;;;;;;;;4942002;28;20222;-89
2023/03/07 05:14:57;;;;;;;9.97;8.93;;;;;;;;;;4935304;28;20724;-88
2023/03/07 05:17:23;;;;;;;10.70;9.70;;;;;;;;;;4962011;28;20233;-88
2023/03/07 05:19:57;;;;;;;10.60;9.63;;;;;;;;;;4966870;28;20205;-91
2023/03/07 05:22:29;;;;;;;9.67;8.50;;;;;;;;;;4955730;28;20574;-86
2023/03/07 05:24:55;;;;;;;9.70;7.93;;;;;;;;;;4954537;28;20218;-88
2023/03/07 05:27:21;;;;;;;9.90;8.90;;;;;;;;;;4962090;28;20625;-89
2023/03/07 05:29:46;;;;;;;10.03;9.03;;;;;;;;;;4982425;28;20217;-87
2023/03/07 05:32:13;;;;;;;8.97;8.10;;;;;;;;;;4988802;28;20328;-86
2023/03/07 05:34:38;;;;;;;9.53;8.57;;;;;;;;;;4985114;28;20221;-88
2023/03/07 05:37:04;;;;;;;8.37;7.57;;;;;;;;;;4961328;28;20284;-88
2023/03/07 05:39:30;;;;;;;8.87;7.47;;;;;;;;;;4963358;28;20758;-86
2023/03/07 05:41:56;;;;;;;6.90;6.20;;;;;;;;;;4963394;28;20585;-87
2023/03/07 05:44:22;;;;;;;11.73;6.50;;;;;;;;;;4983394;28;20225;-86
2023/03/07 05:46:47;;;;;;;7.83;6.97;;;;;;;;;;4959552;28;20362;-89
2023/03/07 05:49:16;;;;;;;9.93;6.77;;;;;;;;;;4964829;28;20777;-89
2023/03/07 05:51:41;;;;;;;8.23;6.40;;;;;;;;;;4983801;28;20229;-87
2023/03/07 05:54:07;;;;;;;8.20;6.10;;;;;;;;;;4968348;28;20581;-87
2023/03/07 05:56:34;;;;;;;9.47;5.83;;;;;;;;;;4983879;28;20264;-88
2023/03/07 05:59:00;;;;;;;12.40;5.37;;;;;;;;;;4960505;28;20239;-88
2023/03/07 06:01:25;;;;;;;7.13;5.13;;;;;;;;;;4975780;28;20231;-87
2023/03/07 06:03:55;;;;;;;6.17;5.10;;;;;;;;;;4934261;28;20218;-86
2023/03/07 06:06:21;;;;;;;14.37;9.67;;;;;;;;;;4937446;28;20255;-88
2023/03/07 06:08:46;;;;;;;7.27;4.90;;;;;;;;;;4983201;28;20209;-87
2023/03/07 06:11:12;;;;;;;4.27;3.37;;;;;;;;;;4984619;28;20230;-86
2023/03/07 06:13:38;;;;;;;5.37;3.80;;;;;;;;;;4967786;28;20229;-87
2023/03/07 06:16:04;;;;;;;4.90;3.00;;;;;;;;;;4943126;28;20225;-86
2023/03/07 06:18:30;;;;;;;4.70;3.10;;;;;;;;;;4959721;28;20229;-87
2023/03/07 06:21:08;;;;;;;7.73;3.53;;;;;;;;;;4965881;28;20209;-86
2023/03/07 06:23:38;;;;;;;4.03;3.10;;;;;;;;;;4966507;28;20222;-86
2023/03/07 06:26:11;;;;;;;4.07;2.50;;;;;;;;;;4990021;28;20280;-88
2023/03/07 06:28:38;;;;;;;5.40;3.10;;;;;;;;;;4987050;28;20222;-87
2023/03/07 06:31:09;;;;;;;9.67;2.40;;;;;;;;;;4964249;28;20238;-87
2023/03/07 06:33:34;;;;;;;4.80;1.90;;;;;;;;;;4976408;28;21042;-87
2023/03/07 06:36:10;;;;;;;5.57;2.50;;;;;;;;;;4978142;28;20597;-88
2023/03/07 06:38:39;;;;;;;3.93;2.37;;;;;;;;;;4965180;28;20280;-87
2023/03/07 06:41:06;;;;;;;3.10;1.57;;;;;;;;;;4971958;28;20263;-84
2023/03/07 06:43:31;;;;;;;4.50;2.37;;;;;;;;;;4983961;28;20216;-86
2023/03/07 06:45:57;;;;;;;3.33;2.10;;;;;;;;;;4961540;28;20718;-87
2023/03/07 06:48:26;;;;;;;4.57;1.80;;;;;;;;;;4961533;28;20225;-88
2023/03/07 06:50:53;;;;;;;5.37;2.20;;;;;;;;;;5002998;28;20213;-84
2023/03/07 06:53:19;;;;;;;3.27;1.53;;;;;;;;;;4973147;28;20603;-85
2023/03/07 06:55:49;;;;;;;2.30;1.47;;;;;;;;;;4978517;28;20222;-84
2023/03/07 06:58:15;;;;;;;3.47;1.30;;;;;;;;;;4987440;28;20230;-87
2023/03/07 07:00:41;;;;;;;3.97;2.07;;;;;;;;;;4960651;28;20279;-88
2023/03/07 07:03:13;;;;;;;3.10;1.30;;;;;;;;;;4968218;28;20226;-87
2023/03/07 07:05:39;;;;;;;5.40;1.70;;;;;;;;;;4966829;28;20225;-86
2023/03/07 07:08:04;;;;;;;5.90;1.70;;;;;;;;;;4986365;28;20217;-85
2023/03/07 07:10:32;;;;;;;1.83;1.20;;;;;;;;;;4985776;28;20259;-87
2023/03/07 07:13:00;;;;;;;3.67;1.23;;;;;;;;;;4971863;28;20223;-87
2023/03/07 07:18:06;;;;;;;4.57;1.90;;;;;;;;;;5053455;28;20607;-90
2023/03/07 07:20:33;;;;;;;3.07;1.40;;;;;;;;;;4991973;28;20692;-89
2023/03/07 07:23:00;;;;;;;4.57;2.00;;;;;;;;;;5019350;28;20221;-87
2023/03/07 07:25:26;;;;;;;5.93;2.07;;;;;;;;;;5046527;28;20828;-87
2023/03/07 07:27:54;;;;;;;5.10;1.40;;;;;;;;;;4999507;28;20240;-87
2023/03/07 07:30:20;;;;;;;5.53;2.17;;;;;;;;;;4992691;28;20250;-88
2023/03/07 07:32:49;;;;;;;4.30;2.83;;;;;;;;;;5019248;28;20227;-90
2023/03/07 07:35:15;;;;;;;5.17;2.43;;;;;;;;;;5024393;28;20227;-87
2023/03/07 07:37:40;;;;;;;3.47;1.57;;;;;;;;;;5006413;28;20693;-86
2023/03/07 07:40:09;;;;;;;4.90;2.73;;;;;;;;;;4989799;28;20227;-88
2023/03/07 07:42:38;;;;;;;7.17;2.90;;;;;;;;;;5007146;28;20219;-87
2023/03/07 07:45:23;;;;;;;4.77;2.30;;;;;;;;;;5016296;28;20227;-88
2023/03/07 07:47:49;;;;;;;4.57;2.17;;;;;;;;;;5029364;28;20251;-90
2023/03/07 07:50:19;;;;;;;8.83;1.83;;;;;;;;;;5013046;28;20277;-88
2023/03/07 07:52:47;;;;;;;5.17;1.83;;;;;;;;;;5015485;28;20238;-89
2023/03/07 07:55:13;;;;;;;4.87;2.33;;;;;;;;;;4981737;28;20229;-88
2023/03/07 07:57:42;;;;;;;3.77;1.70;;;;;;;;;;5001597;28;20964;-87
2023/03/07 08:00:09;;;;;;;4.80;1.90;;;;;;;;;;4996248;28;20213;-89
2023/03/07 08:02:37;;;;;;;3.97;2.10;;;;;;;;;;5007776;28;20226;-86
2023/03/07 08:05:09;;;;;;;5.83;2.40;;;;;;;;;;5000730;28;20232;-90
2023/03/07 08:07:37;;;;;;;3.80;1.57;;;;;;;;;;5001257;28;20220;-87
2023/03/07 08:10:06;;;;;;;3.90;1.60;;;;;;;;;;5008848;28;20979;-88
2023/03/07 08:12:32;;;;;;;4.40;1.80;;;;;;;;;;5005941;28;20267;-90
2023/03/07 08:14:57;;;;;;;3.07;1.20;;;;;;;;;;4992051;28;20232;-88
2023/03/07 08:17:25;;;;;;;4.97;1.40;;;;;;;;;;5014169;28;20232;-87
2023/03/07 08:19:53;;;;;;;3.93;1.77;;;;;;;;;;5012280;28;20217;-86
2023/03/07 08:22:23;;;;;;;5.10;1.63;;;;;;;;;;5010547;28;20223;-87
2023/03/07 08:24:51;;;;;;;5.97;1.57;;;;;;;;;;5011115;28;20925;-89
2023/03/07 08:27:20;;;;;;;4.73;2.20;;;;;;;;;;5010298;28;20220;-88
2023/03/07 08:29:48;;;;;;;5.53;1.90;;;;;;;;;;5011403;28;20223;-90
2023/03/07 08:32:16;;;;;;;3.13;1.67;;;;;;;;;;5011822;28;20239;-89
2023/03/07 08:34:41;;;;;;;7.33;2.10;;;;;;;;;;5013744;28;20231;-87
2023/03/07 08:37:11;;;;;;;3.93;2.13;;;;;;;;;;5012222;28;20808;-88
2023/03/07 08:39:36;;;;;;;3.97;2.43;;;;;;;;;;5003214;28;20588;-86
2023/03/07 08:42:02;;;;;;;3.50;1.90;;;;;;;;;;5010147;28;20226;-89
2023/03/07 08:44:27;;;;;;;5.00;1.50;;;;;;;;;;4994604;28;20224;-90
2023/03/07 08:46:53;;;;;;;3.63;1.60;;;;;;;;;;5012264;28;20216;-90
2023/03/07 08:49:20;;;;;;;4.33;1.23;;;;;;;;;;5004914;28;20229;-88
2023/03/07 08:51:48;;;;;;;4.17;1.33;;;;;;;;;;5011666;28;20651;-88
2023/03/07 08:54:14;;;;;;;4.87;1.50;;;;;;;;;;5011277;28;20228;-87
2023/03/07 08:56:39;;;;;;;4.70;1.40;;;;;;;;;;5004636;28;20221;-88
2023/03/07 08:59:05;;;;;;;3.10;1.67;;;;;;;;;;5009960;28;20228;-87
2023/03/07 09:01:33;;;;;;;2.97;1.77;;;;;;;;;;5006046;28;20223;-86
2023/03/07 09:03:59;;;;;;;3.27;1.50;;;;;;;;;;5000849;28;20224;-87
2023/03/07 09:06:24;;;;;;;3.40;1.80;;;;;;;;;;5023808;28;20251;-86
2023/03/07 09:08:50;;;;;;;5.07;2.33;;;;;;;;;;5012626;28;20230;-88
2023/03/07 09:11:20;;;;;;;3.77;2.10;;;;;;;;;;5009721;28;20357;-87
2023/03/07 09:13:45;;;;;;;5.30;2.20;;;;;;;;;;5011199;28;20630;-87
2023/03/07 09:16:11;;;;;;;2.90;1.60;;;;;;;;;;4988528;28;20259;-88
2023/03/07 09:18:39;;;;;;;7.57;2.77;;;;;;;;;;5017193;28;20226;-86
2023/03/07 09:21:05;;;;;;;4.67;2.93;;;;;;;;;;5002545;28;20224;-89
2023/03/07 09:23:34;;;;;;;7.33;4.23;;;;;;;;;;4991630;28;20211;-86
2023/03/07 09:26:03;;;;;;;3.80;2.57;;;;;;;;;;4997753;28;20248;-88
2023/03/07 09:28:29;;;;;;;3.47;2.40;;;;;;;;;;5010929;28;20232;-88
2023/03/07 09:30:57;;;;;;;5.60;3.30;;;;;;;;;;4990975;28;20555;-90
2023/03/07 09:33:25;;;;;;;7.40;3.77;;;;;;;;;;4989279;28;20218;-89
2023/03/07 09:35:53;;;;;;;9.83;2.53;;;;;;;;;;4991988;28;20231;-88
2023/03/07 09:38:18;;;;;;;4.03;1.80;;;;;;;;;;4983151;28;20232;-88
2023/03/07 09:40:45;;;;;;;4.67;1.83;;;;;;;;;;5016714;28;20200;-88
2023/03/07 09:43:25;;;;;;;5.87;3.60;;;;;;;;;;4989104;28;20228;-87
2023/03/07 09:46:45;;;;;;;7.40;3.77;;;;;;;;;;5022091;28;20246;-87
2023/03/07 09:49:16;;;;;;;5.00;2.50;;;;;;;;;;5002775;28;20224;-87
2023/03/07 09:51:45;;;;;;;5.07;3.00;;;;;;;;;;4999418;28;20231;-88
2023/03/07 09:54:12;;;;;;;6.70;3.67;;;;;;;;;;5004721;28;20630;-87
2023/03/07 09:56:56;;;;;;;6.03;2.60;;;;;;;;;;5016143;28;20230;-86
2023/03/07 09:59:33;;;;;;;3.50;1.50;;;;;;;;;;5019997;28;20412;-88
2023/03/07 10:02:30;;;;;;;3.47;1.70;;;;;;;;;;5031515;28;20242;-87
2023/03/07 10:05:17;;;;;;;4.93;1.57;;;;;;;;;;5011346;28;21416;-88
2023/03/07 10:07:46;;;;;;;3.80;1.90;;;;;;;;;;5034874;28;20231;-86
2023/03/07 10:10:41;;;;;;;4.23;1.50;;;;;;;;;;5004358;28;20223;-88
2023/03/07 10:13:40;;;;;;;2.73;1.30;;;;;;;;;;5030647;28;20271;-89
2023/03/07 10:16:21;;;;;;;4.70;1.50;;;;;;;;;;5019535;28;20230;-90
2023/03/07 10:18:58;;;;;;;4.20;1.50;;;;;;;;;;5045294;28;20703;-90
2023/03/07 10:21:35;;;;;;;3.37;1.27;;;;;;;;;;5039965;28;20306;-87
2023/03/07 10:24:12;;;;;;;4.70;2.10;;;;;;;;;;4997768;28;20681;-89
2023/03/07 10:26:40;;;;;;;5.77;1.60;;;;;;;;;;5015571;28;20231;-91
2023/03/07 10:29:22;;;;;;;7.20;1.47;;;;;;;;;;5044902;28;20282;-88
2023/03/07 10:31:50;;;;;;;4.47;1.20;;;;;;;;;;5017144;28;20233;-85
2023/03/07 10:34:19;;;;;;;4.33;1.40;;;;;;;;;;5017064;28;20235;-90
2023/03/07 10:36:45;;;;;;;4.53;1.30;;;;;;;;;;5030027;28;20226;-91
2023/03/07 10:39:22;;;;;;;2.50;1.37;;;;;;;;;;5041961;28;20228;-87
2023/03/07 10:41:48;;;;;;;7.43;1.20;;;;;;;;;;5014666;28;20220;-87
2023/03/07 10:44:18;;;;;;;3.53;1.53;;;;;;;;;;5036244;28;20232;-90
2023/03/07 10:46:44;;;;;;;3.73;1.77;;;;;;;;;;4998169;28;20220;-91
2023/03/07 10:49:20;;;;;;;7.00;1.30;;;;;;;;;;4999463;28;20282;-89
2023/03/07 10:51:57;;;;;;;3.07;1.20;;;;;;;;;;5016095;28;20231;-89
2023/03/07 10:54:32;;;;;;;2.00;1.30;;;;;;;;;;4998185;28;20224;-85
2023/03/07 10:57:17;;;;;;;1.90;1.10;;;;;;;;;;5006251;28;20641;-89
2023/03/07 10:59:46;;;;;;;2.97;0.93;;;;;;;;;;5011217;28;20321;-89
2023/03/07 11:02:36;;;;;;;4.47;1.17;;;;;;;;;;5016424;28;20274;-86
2023/03/07 11:05:03;;;;;;;1.97;1.10;;;;;;;;;;5082696;28;20586;-91
2023/03/07 11:07:33;;;;;;;5.67;1.50;;;;;;;;;;5032622;28;20223;-92
2023/03/07 11:09:59;;;;;;;5.07;1.30;;;;;;;;;;5011644;28;20301;-91
2023/03/07 11:12:26;;;;;;;3.97;1.40;;;;;;;;;;4996286;28;20354;-90
2023/03/07 11:14:56;;;;;;;5.47;1.57;;;;;;;;;;4999519;28;20228;-93
2023/03/07 11:17:42;;;;;;;3.07;1.10;;;;;;;;;;5026435;28;20231;-89
2023/03/07 11:20:29;;;;;;;4.33;2.03;;;;;;;;;;5050660;28;20223;-91
2023/03/07 11:23:15;;;;;;;4.77;1.33;;;;;;;;;;5039083;28;20251;-94
2023/03/07 11:25:45;;;;;;;5.63;1.43;;;;;;;;;;5031920;28;20260;-91
2023/03/07 11:28:41;;;;;;;6.17;2.30;;;;;;;;;;5013663;28;20712;-88
2023/03/07 11:31:30;;;;;;;4.87;3.13;;;;;;;;;;4983275;28;20237;-94
2023/03/07 11:34:23;;;;;;;6.07;2.60;;;;;;;;;;5017642;28;20221;-94
2023/03/07 11:36:57;;;;;;;5.13;2.17;;;;;;;;;;5013638;28;20287;-90
2023/03/07 11:39:44;;;;;;;4.73;1.87;;;;;;;;;;5026988;28;20355;-92
2023/03/07 11:42:21;;;;;;;6.23;1.90;;;;;;;;;;5050188;28;20238;-88
2023/03/07 11:44:49;;;;;;;4.63;2.83;;;;;;;;;;5012893;28;20782;-86
2023/03/07 11:47:55;;;;;;;3.37;1.87;;;;;;;;;;5041306;28;20225;-87
2023/03/07 11:50:25;;;;;;;3.17;1.60;;;;;;;;;;4991811;28;20260;-90
2023/03/07 11:53:18;;;;;;;3.47;1.43;;;;;;;;;;5017255;28;20254;-88
2023/03/07 11:56:18;;;;;;;3.53;2.00;;;;;;;;;;5042939;28;20263;-87
2023/03/07 11:59:25;;;;;;;4.50;2.13;;;;;;;;;;5028682;28;20231;-86
2023/03/07 12:01:55;;;;;;;3.63;1.93;;;;;;;;;;5032963;28;20234;-88
2023/03/07 12:04:38;;;;;;;6.57;1.87;;;;;;;;;;5039190;28;20231;-88
2023/03/07 12:07:20;;;;;;;3.07;1.07;;;;;;;;;;5045127;28;20219;-85
2023/03/07 12:09:57;;;;;;;3.37;1.50;;;;;;;;;;5022608;28;20216;-85
2023/03/07 12:12:56;;;;;;;4.80;1.37;;;;;;;;;;5025658;28;20234;-89
2023/03/07 12:15:45;;;;;;;1.83;1.10;;;;;;;;;;4990786;28;20929;-87
2023/03/07 12:18:15;;;;;;;3.53;1.67;;;;;;;;;;5032212;28;20244;-86
2023/03/07 12:20:57;;;;;;;2.90;1.50;;;;;;;;;;5034301;28;20221;-85
2023/03/07 12:23:23;;;;;;;3.43;1.30;;;;;;;;;;5032414;28;20837;-87
2023/03/07 12:25:56;;;;;;;2.47;1.10;;;;;;;;;;5022125;28;20243;-84
2023/03/07 12:28:32;;;;;;;4.10;1.67;;;;;;;;;;5014872;28;20303;-85
2023/03/07 12:31:22;;;;;;;5.00;1.20;;;;;;;;;;5006755;28;20220;-89
2023/03/07 12:33:50;;;;;;;1.97;1.10;;;;;;;;;;5001166;28;20819;-84
2023/03/07 12:36:42;;;;;;;1.63;1.27;;;;;;;;;;5046436;28;20231;-85
2023/03/07 12:39:30;;;;;;;2.33;1.20;;;;;;;;;;4989589;28;20216;-90
2023/03/07 12:42:14;;;;;;;4.03;1.10;;;;;;;;;;5020187;28;20223;-85
2023/03/07 12:44:56;;;;;;;4.40;1.27;;;;;;;;;;5015046;28;20307;-88
2023/03/07 12:47:33;;;;;;;4.23;1.57;;;;;;;;;;5029618;28;20212;-89
2023/03/07 12:50:23;;;;;;;2.67;1.20;;;;;;;;;;5008346;28;20228;-86
2023/03/07 12:53:15;;;;;;;3.33;1.10;;;;;;;;;;5037282;28;20252;-85
2023/03/07 12:55:49;;;;;;;8.33;3.50;;;;;;;;;;5014514;28;20234;-85
2023/03/07 12:58:30;;;;;;;4.87;2.40;;;;;;;;;;5000342;28;20652;-86
2023/03/07 13:01:30;;;;;;;3.53;1.70;;;;;;;;;;5019673;28;20246;-84
2023/03/07 13:03:59;;;;;;;3.50;1.63;;;;;;;;;;5000621;28;20260;-83
2023/03/07 13:06:26;;;;;;;9.70;2.33;;;;;;;;;;5038284;28;20239;-86
2023/03/07 13:08:53;;;;;;;3.47;1.57;;;;;;;;;;4982965;28;20688;-85
2023/03/07 13:11:24;;;;;;;8.60;1.63;;;;;;;;;;5001181;28;20220;-86
2023/03/07 13:13:59;;;;;;;2.73;1.17;;;;;;;;;;4991267;28;20265;-89
2023/03/07 13:16:38;;;;;;;17.00;11.77;;;;;;;;;;5004402;28;20301;-89
2023/03/07 13:19:34;;;;;;;3.60;2.43;;;;;;;;;;5036483;28;20261;-88
2023/03/07 13:22:15;;;;;;;11.07;4.93;;;;;;;;;;5042164;28;20219;-87
2023/03/07 13:25:22;;;;;;;35.47;18.80;;;;;;;;;;5037865;28;20694;-88
2023/03/07 13:27:52;;;;;;;13.60;8.27;;;;;;;;;;5038974;28;20753;-86
2023/03/07 13:30:24;;;;;;;15.67;7.83;;;;;;;;;;5024313;28;20252;-87
2023/03/07 13:32:54;;;;;;;14.17;6.80;;;;;;;;;;5010338;28;20224;-89
2023/03/07 13:35:23;;;;;;;4.60;2.77;;;;;;;;;;5032349;28;20211;-86
2023/03/07 13:38:03;;;;;;;4.93;1.87;;;;;;;;;;5031105;28;20613;-89
2023/03/07 13:40:35;;;;;;;4.63;2.90;;;;;;;;;;5041757;28;20300;-87
2023/03/07 13:43:23;;;;;;;3.37;1.60;;;;;;;;;;5032525;28;20220;-85
2023/03/07 13:46:02;;;;;;;5.13;2.77;;;;;;;;;;5016283;28;20282;-87
2023/03/07 13:48:31;;;;;;;3.93;1.43;;;;;;;;;;5013242;28;20223;-87
2023/03/07 13:50:59;;;;;;;2.10;1.47;;;;;;;;;;5026562;28;20264;-86
2023/03/07 13:53:35;;;;;;;2.27;1.50;;;;;;;;;;5023773;28;20256;-86
2023/03/07 13:56:16;;;;;;;3.87;1.50;;;;;;;;;;5032173;28;20615;-88
2023/03/07 13:59:13;;;;;;;2.77;2.03;;;;;;;;;;5017590;28;20604;-86
2023/03/07 14:01:40;;;;;;;5.67;2.00;;;;;;;;;;5003804;28;20199;-85
2023/03/07 14:04:13;;;;;;;5.53;1.27;;;;;;;;;;5040489;28;20753;-86
2023/03/07 14:06:48;;;;;;;3.33;1.27;;;;;;;;;;5003891;28;20196;-90
2023/03/07 14:09:16;;;;;;;9.93;5.50;;;;;;;;;;5000193;28;20207;-88
2023/03/07 14:12:06;;;;;;;4.63;2.23;;;;;;;;;;5008394;28;20216;-86
2023/03/07 14:14:32;;;;;;;4.60;2.60;;;;;;;;;;4987239;28;20719;-89
2023/03/07 14:17:20;;;;;;;2.40;1.40;;;;;;;;;;5012320;28;20235;-85
2023/03/07 14:20:10;;;;;;;3.97;1.50;;;;;;;;;;5016475;28;20314;-85
2023/03/07 14:22:54;;;;;;;2.37;1.27;;;;;;;;;;5010154;28;20226;-92
2023/03/07 14:25:21;;;;;;;4.77;2.10;;;;;;;;;;5016491;28;20307;-88
2023/03/07 14:27:55;;;;;;;4.53;1.37;;;;;;;;;;5003724;28;20225;-86
2023/03/07 14:30:24;;;;;;;2.90;0.90;;;;;;;;;;4986243;28;20223;-85
2023/03/07 14:32:53;;;;;;;3.50;1.13;;;;;;;;;;5039385;28;20210;-91
2023/03/07 14:35:41;;;;;;;3.30;1.70;;;;;;;;;;5013611;28;20224;-89
2023/03/07 14:38:18;;;;;;;3.00;1.10;;;;;;;;;;5032090;28;20230;-91
2023/03/07 14:40:53;;;;;;;2.70;1.27;;;;;;;;;;5032901;28;20234;-88
2023/03/07 14:43:25;;;;;;;4.17;1.30;;;;;;;;;;5014115;28;20204;-93
2023/03/07 14:46:23;;;;;;;2.93;1.17;;;;;;;;;;5010790;28;20252;-86
2023/03/07 14:49:04;;;;;;;3.30;0.90;;;;;;;;;;4997066;28;20220;-86
2023/03/07 14:51:29;;;;;;;2.83;1.00;;;;;;;;;;5001056;28;20236;-89
2023/03/07 14:53:57;;;;;;;2.63;0.80;;;;;;;;;;4991829;28;20600;-85
2023/03/07 14:56:26;;;;;;;5.27;1.10;;;;;;;;;;4993499;28;20228;-90
2023/03/07 14:58:54;;;;;;;3.30;1.33;;;;;;;;;;4983270;28;20217;-87
2023/03/07 15:01:24;;;;;;;2.30;1.10;;;;;;;;;;4995496;28;20277;-88